createdAt,value
2022-11-24T00:01:10.738Z,1.60
2022-11-24T00:03:38.626Z,1.90
2022-11-24T00:06:09.566Z,1.75
2022-11-24T00:08:38.527Z,1.67
2022-11-24T00:11:07.757Z,1.95
2022-11-24T00:13:35.896Z,1.48
2022-11-24T00:16:08.552Z,1.55
2022-11-24T00:18:36.332Z,1.60
2022-11-24T00:21:04.068Z,1.50
2022-11-24T00:23:33.677Z,1.63
2022-11-24T00:26:06.154Z,1.40
2022-11-24T00:28:34.642Z,1.90
2022-11-24T00:31:03.057Z,2.38
2022-11-24T00:33:30.761Z,1.33
2022-11-24T00:35:59.432Z,1.77
2022-11-24T00:38:27.762Z,2.25
2022-11-24T00:40:56.739Z,1.45
2022-11-24T00:43:24.424Z,1.50
2022-11-24T00:45:52.152Z,1.42
2022-11-24T00:48:19.793Z,1.45
2022-11-24T00:50:56.848Z,1.80
2022-11-24T00:53:25.077Z,1.55
2022-11-24T00:55:53.311Z,1.30
2022-11-24T00:58:22.432Z,1.50
2022-11-24T01:00:50.318Z,1.30
2022-11-24T01:03:19.679Z,1.30
2022-11-24T01:05:47.556Z,1.20
2022-11-24T01:08:15.207Z,1.20
2022-11-24T01:10:42.928Z,1.50
2022-11-24T01:13:12.245Z,1.92
2022-11-24T01:15:41.354Z,1.15
2022-11-24T01:18:09.002Z,1.45
2022-11-24T01:20:37.485Z,1.25
2022-11-24T01:23:05.238Z,1.30
2022-11-24T01:25:33.044Z,1.10
2022-11-24T01:28:00.762Z,1.70
2022-11-24T01:30:28.396Z,1.10
2022-11-24T01:32:57.413Z,1.13
2022-11-24T01:35:25.048Z,0.70
2022-11-24T01:37:52.697Z,0.95
2022-11-24T01:40:20.479Z,1.85
2022-11-24T01:42:50.638Z,1.20
2022-11-24T01:45:35.788Z,1.17
2022-11-24T01:48:08.331Z,1.13
2022-11-24T01:50:37.156Z,1.27
2022-11-24T01:53:05.991Z,1.10
2022-11-24T01:55:37.432Z,1.10
2022-11-24T01:58:07.457Z,0.93
2022-11-24T02:00:37.259Z,1.20
2022-11-24T02:03:06.345Z,1.20
2022-11-24T02:05:40.147Z,1.85
2022-11-24T02:08:13.485Z,1.73
2022-11-24T02:10:41.237Z,1.02
2022-11-24T02:13:08.963Z,1.85
2022-11-24T02:15:36.907Z,1.33
2022-11-24T02:18:06.315Z,1.23
2022-11-24T02:20:34.509Z,1.17
2022-11-24T02:23:11.635Z,1.90
2022-11-24T02:25:47.781Z,1.30
2022-11-24T02:28:19.738Z,2.08
2022-11-24T02:30:48.121Z,1.33
2022-11-24T02:33:16.324Z,1.50
2022-11-24T02:35:44.574Z,1.92
2022-11-24T02:38:13.689Z,1.33
2022-11-24T02:40:44.735Z,1.63
2022-11-24T02:43:17.531Z,1.73
2022-11-24T02:48:12.569Z,1.20
2022-11-24T02:50:40.172Z,1.40
2022-11-24T02:53:07.858Z,1.50
2022-11-24T02:55:35.498Z,1.75
2022-11-24T02:58:03.069Z,1.40
2022-11-24T03:00:32.097Z,1.70
2022-11-24T03:03:00.193Z,2.00
2022-11-24T03:05:27.891Z,1.50
2022-11-24T03:07:55.517Z,2.35
2022-11-24T03:10:24.378Z,1.63
2022-11-24T03:12:52.015Z,1.52
2022-11-24T03:15:19.674Z,2.50
2022-11-24T03:17:48.612Z,1.85
2022-11-24T03:20:16.653Z,1.90
2022-11-24T03:22:44.307Z,1.58
2022-11-24T03:25:12.206Z,1.77
2022-11-24T03:27:39.855Z,2.03
2022-11-24T03:30:08.741Z,1.48
2022-11-24T03:32:36.376Z,2.03
2022-11-24T03:35:06.070Z,1.48
2022-11-24T03:37:33.701Z,1.63
2022-11-24T03:40:01.341Z,1.70
2022-11-24T03:42:28.968Z,1.92
2022-11-24T03:44:56.584Z,1.67
2022-11-24T03:47:24.242Z,1.58
2022-11-24T03:49:51.850Z,1.55
2022-11-24T03:52:20.828Z,1.17
2022-11-24T03:54:48.767Z,1.58
2022-11-24T03:57:16.450Z,1.75
2022-11-24T03:59:44.075Z,2.13
2022-11-24T04:02:11.800Z,2.42
2022-11-24T04:04:39.478Z,1.40
2022-11-24T04:07:07.212Z,1.55
2022-11-24T04:09:36.224Z,1.50
2022-11-24T04:12:21.603Z,1.48
2022-11-24T04:14:49.243Z,1.85
2022-11-24T04:17:16.892Z,1.33
2022-11-24T04:19:44.505Z,1.83
2022-11-24T04:22:12.193Z,1.45
2022-11-24T04:24:41.181Z,2.50
2022-11-24T04:27:10.519Z,1.80
2022-11-24T04:29:38.337Z,1.98
2022-11-24T04:32:07.894Z,1.70
2022-11-24T04:34:36.045Z,1.48
2022-11-24T04:37:03.886Z,1.63
2022-11-24T04:39:31.532Z,1.98
2022-11-24T04:42:00.538Z,1.60
2022-11-24T04:44:28.331Z,1.50
2022-11-24T04:46:56.094Z,1.88
2022-11-24T04:49:23.895Z,1.23
2022-11-24T04:51:51.532Z,1.80
2022-11-24T04:54:19.121Z,1.38
2022-11-24T04:56:46.762Z,1.98
2022-11-24T04:59:16.295Z,1.40
2022-11-24T05:01:44.260Z,2.22
2022-11-24T05:04:12.884Z,1.98
2022-11-24T05:06:40.832Z,2.80
2022-11-24T05:09:15.361Z,2.00
2022-11-24T05:11:43.281Z,2.25
2022-11-24T05:14:11.018Z,2.00
2022-11-24T05:16:40.671Z,2.80
2022-11-24T05:19:10.827Z,2.53
2022-11-24T05:21:38.491Z,1.88
2022-11-24T05:24:06.557Z,1.63
2022-11-24T05:26:35.494Z,1.77
2022-11-24T05:29:03.211Z,1.77
2022-11-24T05:31:30.995Z,2.10
2022-11-24T05:34:00.007Z,2.38
2022-11-24T05:36:45.491Z,2.53
2022-11-24T05:39:13.123Z,1.90
2022-11-24T05:41:40.744Z,1.70
2022-11-24T05:44:08.623Z,2.50
2022-11-24T05:46:36.300Z,2.42
2022-11-24T05:49:05.307Z,2.30
2022-11-24T05:51:33.330Z,2.67
2022-11-24T05:54:01.033Z,2.10
2022-11-24T05:56:28.631Z,1.80
2022-11-24T05:58:57.934Z,2.17
2022-11-24T06:01:25.581Z,1.80
2022-11-24T06:03:53.157Z,2.15
2022-11-24T06:06:22.230Z,2.05
2022-11-24T06:08:49.819Z,2.63
2022-11-24T06:11:20.353Z,2.20
2022-11-24T06:13:49.196Z,3.00
2022-11-24T06:16:17.187Z,3.28
2022-11-24T06:18:45.023Z,2.72
2022-11-24T06:21:12.998Z,2.58
2022-11-24T06:23:41.930Z,2.22
2022-11-24T06:26:10.656Z,3.25
2022-11-24T06:28:40.957Z,2.88
2022-11-24T06:31:08.693Z,2.17
2022-11-24T06:33:37.967Z,3.10
2022-11-24T06:36:07.978Z,2.70
2022-11-24T06:38:37.019Z,2.63
2022-11-24T06:41:08.361Z,2.40
2022-11-24T06:43:36.821Z,3.10
2022-11-24T06:46:05.285Z,2.53
2022-11-24T06:48:33.380Z,2.30
2022-11-24T06:51:01.841Z,2.92
2022-11-24T06:53:31.183Z,2.65
2022-11-24T06:56:00.279Z,2.88
2022-11-24T06:58:29.321Z,3.08
2022-11-24T07:00:57.123Z,1.75
2022-11-24T07:03:24.885Z,2.50
2022-11-24T07:05:57.602Z,2.00
2022-11-24T07:08:25.549Z,3.90
2022-11-24T07:10:53.659Z,3.38
2022-11-24T07:13:21.758Z,2.30
2022-11-24T07:15:50.752Z,2.05
2022-11-24T07:18:18.464Z,1.45
2022-11-24T07:20:46.153Z,1.85
2022-11-24T07:23:16.182Z,1.73
2022-11-24T07:25:43.861Z,2.13
2022-11-24T07:28:11.468Z,1.75
2022-11-24T07:30:39.092Z,1.98
2022-11-24T07:33:08.015Z,1.20
2022-11-24T07:35:35.701Z,1.55
2022-11-24T07:38:03.458Z,1.40
2022-11-24T07:40:31.169Z,1.73
2022-11-24T07:43:01.667Z,1.50
2022-11-24T07:45:29.419Z,1.35
2022-11-24T07:47:57.110Z,2.25
2022-11-24T07:50:26.124Z,1.50
2022-11-24T07:52:53.872Z,1.85
2022-11-24T07:55:21.490Z,1.90
2022-11-24T07:57:49.166Z,1.80
2022-11-24T08:00:17.985Z,1.52
2022-11-24T08:02:45.771Z,1.33
2022-11-24T08:05:13.417Z,1.48
2022-11-24T08:07:42.555Z,1.50
2022-11-24T08:10:10.578Z,1.10
2022-11-24T08:12:38.314Z,1.40
2022-11-24T08:15:10.982Z,1.45
2022-11-24T08:17:39.245Z,1.40
2022-11-24T08:20:08.795Z,1.77
2022-11-24T08:22:36.467Z,1.23
2022-11-24T08:25:05.985Z,1.20
2022-11-24T08:27:33.907Z,1.25
2022-11-24T08:30:01.612Z,1.63
2022-11-24T08:32:29.238Z,1.73
2022-11-24T08:35:13.013Z,1.48
2022-11-24T08:37:40.986Z,1.27
2022-11-24T08:40:11.800Z,1.75
2022-11-24T08:42:39.732Z,1.55
2022-11-24T08:45:19.846Z,2.03
2022-11-24T08:47:52.765Z,2.28
2022-11-24T08:50:20.516Z,2.10
2022-11-24T08:52:48.677Z,2.42
2022-11-24T08:55:18.084Z,4.68
2022-11-24T08:57:45.751Z,3.83
2022-11-24T09:00:14.718Z,3.08
2022-11-24T09:02:42.839Z,6.45
2022-11-24T09:05:35.923Z,4.82
2022-11-24T09:07:59.254Z,2.67
2022-11-24T09:10:28.329Z,2.17
2022-11-24T09:12:55.940Z,2.15
2022-11-24T09:15:23.647Z,2.95
2022-11-24T09:17:51.227Z,1.92
2022-11-24T09:20:19.053Z,3.35
2022-11-24T09:22:47.561Z,2.25
2022-11-24T09:25:15.161Z,2.60
2022-11-24T09:27:44.239Z,2.45
2022-11-24T09:30:13.234Z,2.42
2022-11-24T09:32:40.872Z,2.30
2022-11-24T09:35:08.959Z,2.13
2022-11-24T09:37:36.725Z,2.08
2022-11-24T09:40:04.946Z,1.95
2022-11-24T09:42:39.937Z,1.90
2022-11-24T09:45:41.581Z,2.63
2022-11-24T09:48:12.769Z,2.47
2022-11-24T09:50:40.732Z,2.35
2022-11-24T09:53:15.972Z,3.20
2022-11-24T09:55:47.219Z,2.88
2022-11-24T09:58:25.424Z,2.38
2022-11-24T10:00:56.011Z,2.22
2022-11-24T10:03:32.733Z,2.85
2022-11-24T10:06:02.002Z,2.30
2022-11-24T10:08:49.027Z,2.45
2022-11-24T10:11:23.781Z,3.35
2022-11-24T10:14:10.900Z,2.50
2022-11-24T10:16:50.803Z,2.55
2022-11-24T10:19:37.098Z,2.92
2022-11-24T10:22:22.998Z,2.92
2022-11-24T10:25:04.683Z,2.50
2022-11-24T10:27:38.001Z,3.38
2022-11-24T10:30:14.816Z,3.22
2022-11-24T10:32:47.348Z,2.13
2022-11-24T10:35:20.662Z,2.35
2022-11-24T10:37:58.945Z,2.92
2022-11-24T10:43:22.704Z,3.10
2022-11-24T10:45:51.701Z,2.88
2022-11-24T10:48:24.522Z,2.90
2022-11-24T10:53:25.645Z,3.60
2022-11-24T10:56:02.222Z,2.63
2022-11-24T10:58:37.432Z,3.13
2022-11-24T11:01:22.209Z,3.85
2022-11-24T11:03:54.889Z,2.85
2022-11-24T11:06:24.497Z,2.75
2022-11-24T11:09:17.842Z,3.08
2022-11-24T11:11:48.256Z,2.93
2022-11-24T11:14:32.018Z,3.45
2022-11-24T11:16:59.866Z,2.40
2022-11-24T11:19:49.037Z,2.55
2022-11-24T11:22:24.691Z,2.20
2022-11-24T11:25:08.194Z,2.90
2022-11-24T11:27:35.915Z,2.50
2022-11-24T11:36:15.650Z,2.20
2022-11-24T11:38:44.977Z,2.67
2022-11-24T11:41:20.244Z,2.35
2022-11-24T11:43:51.471Z,1.90
2022-11-24T11:46:19.225Z,2.35
2022-11-24T11:48:48.428Z,2.17
2022-11-24T11:51:38.054Z,2.58
2022-11-24T11:54:14.254Z,2.72
2022-11-24T11:56:45.450Z,3.55
2022-11-24T11:59:37.433Z,2.28
2022-11-24T12:02:32.415Z,2.47
2022-11-24T12:05:02.120Z,2.03
2022-11-24T12:07:45.361Z,2.47
2022-11-24T12:10:27.644Z,3.13
2022-11-24T12:13:14.985Z,3.23
2022-11-24T12:15:48.238Z,2.88
2022-11-24T12:18:59.544Z,3.63
2022-11-24T12:21:25.955Z,2.13
2022-11-24T12:24:05.933Z,3.03
2022-11-24T12:26:42.372Z,2.47
2022-11-24T12:29:30.867Z,3.30
2022-11-24T12:32:08.929Z,3.50
2022-11-24T12:34:46.668Z,3.08
2022-11-24T12:37:29.801Z,4.85
2022-11-24T12:40:06.675Z,2.92
2022-11-24T12:42:43.361Z,2.70
2022-11-24T12:45:17.295Z,2.35
2022-11-24T12:48:10.646Z,2.10
2022-11-24T12:50:40.090Z,2.75
2022-11-24T12:53:14.638Z,2.30
2022-11-24T12:55:45.928Z,2.10
2022-11-24T12:58:22.479Z,1.88
2022-11-24T13:01:03.843Z,1.60
2022-11-24T13:03:46.069Z,2.47
2022-11-24T13:06:19.218Z,2.05
2022-11-24T13:08:47.299Z,1.98
2022-11-24T13:11:41.962Z,1.90
2022-11-24T13:14:22.595Z,2.30
2022-11-24T13:17:21.923Z,2.05
2022-11-24T13:19:40.630Z,2.03
2022-11-24T13:22:16.868Z,2.38
2022-11-24T13:24:45.519Z,2.47
2022-11-24T13:27:46.073Z,2.30
2022-11-24T13:30:48.918Z,2.13
2022-11-24T13:33:31.318Z,2.30
2022-11-24T13:36:33.217Z,2.17
2022-11-24T13:39:02.449Z,2.10
2022-11-24T13:42:10.365Z,1.83
2022-11-24T13:45:00.140Z,2.58
2022-11-24T13:47:37.107Z,2.22
2022-11-24T13:50:29.906Z,2.05
2022-11-24T13:53:08.372Z,1.80
2022-11-24T13:55:39.805Z,1.70
2022-11-24T13:58:31.227Z,2.00
2022-11-24T14:01:13.140Z,1.50
2022-11-24T14:04:07.100Z,2.10
2022-11-24T14:06:37.317Z,1.77
2022-11-24T14:09:17.566Z,2.17
2022-11-24T14:11:50.052Z,2.28
2022-11-24T14:16:50.383Z,1.45
2022-11-24T14:19:19.414Z,2.38
2022-11-24T14:21:47.054Z,1.75
2022-11-24T14:24:25.189Z,2.38
2022-11-24T14:26:53.008Z,2.95
2022-11-24T14:29:22.375Z,2.35
2022-11-24T14:31:55.849Z,2.88
2022-11-24T14:34:25.460Z,3.47
2022-11-24T14:36:54.952Z,4.35
2022-11-24T14:39:24.223Z,3.03
2022-11-24T14:41:53.725Z,2.63
2022-11-24T14:44:24.472Z,1.83
2022-11-24T14:47:01.607Z,2.25
2022-11-24T14:49:29.728Z,2.05
2022-11-24T14:52:01.844Z,2.15
2022-11-24T14:54:30.109Z,1.70
2022-11-24T14:57:04.071Z,1.73
2022-11-24T14:59:34.518Z,2.55
2022-11-24T15:02:04.626Z,3.30
2022-11-24T15:05:00.848Z,2.72
2022-11-24T15:07:26.141Z,1.70
2022-11-24T15:09:58.589Z,1.77
2022-11-24T15:12:30.465Z,2.17
2022-11-24T15:15:00.390Z,2.13
2022-11-24T15:17:30.686Z,2.72
2022-11-24T15:20:01.419Z,2.47
2022-11-24T15:22:46.314Z,3.28
2022-11-24T15:25:33.504Z,3.33
2022-11-24T15:28:01.644Z,4.43
2022-11-24T15:30:30.359Z,4.97
2022-11-24T15:33:00.441Z,3.47
2022-11-24T15:35:31.866Z,3.80
2022-11-24T15:38:00.152Z,4.18
2022-11-24T15:40:27.811Z,5.10
2022-11-24T15:42:59.659Z,4.13
2022-11-24T15:45:31.098Z,2.20
2022-11-24T15:48:00.178Z,2.10
2022-11-24T15:50:27.863Z,2.70
2022-11-24T15:52:58.173Z,2.17
2022-11-24T15:55:25.854Z,2.20
2022-11-24T15:57:53.526Z,2.85
2022-11-24T16:00:23.080Z,2.65
2022-11-24T16:02:51.148Z,2.83
2022-11-24T16:05:20.307Z,2.88
2022-11-24T16:07:48.109Z,2.80
2022-11-24T16:10:24.740Z,3.22
2022-11-24T16:12:52.559Z,3.20
2022-11-24T16:15:20.517Z,3.50
2022-11-24T16:17:48.583Z,2.70
2022-11-24T16:20:16.513Z,4.03
2022-11-24T16:22:45.674Z,10.32
2022-11-24T16:25:13.792Z,8.55
2022-11-24T16:27:42.020Z,5.00
2022-11-24T16:30:12.739Z,3.40
2022-11-24T16:32:40.374Z,2.97
2022-11-24T16:35:08.608Z,2.38
2022-11-24T16:37:36.232Z,3.67
2022-11-24T16:40:06.525Z,3.63
2022-11-24T16:42:35.433Z,2.97
2022-11-24T16:45:03.277Z,2.85
2022-11-24T16:47:30.975Z,2.90
2022-11-24T16:49:58.586Z,3.40
2022-11-24T16:52:26.285Z,2.40
2022-11-24T16:54:53.899Z,2.53
2022-11-24T16:57:22.952Z,2.92
2022-11-24T16:59:50.526Z,3.30
2022-11-24T17:02:18.312Z,5.00
2022-11-24T17:04:46.725Z,4.72
2022-11-24T17:07:15.432Z,3.22
2022-11-24T17:09:43.556Z,2.63
2022-11-24T17:12:11.782Z,2.50
2022-11-24T17:14:40.861Z,3.28
2022-11-24T17:17:08.472Z,3.50
2022-11-24T17:19:36.338Z,4.47
2022-11-24T17:22:04.405Z,3.63
2022-11-24T17:24:32.256Z,3.17
2022-11-24T17:27:00.039Z,5.00
2022-11-24T17:29:28.125Z,5.15
2022-11-24T17:31:57.563Z,6.97
2022-11-24T17:34:25.358Z,6.78
2022-11-24T17:36:52.975Z,4.75
2022-11-24T17:39:24.808Z,6.05
2022-11-24T17:41:52.704Z,5.88
2022-11-24T17:44:20.382Z,5.10
2022-11-24T17:46:48.015Z,6.03
2022-11-24T17:49:18.318Z,6.45
2022-11-24T17:51:51.534Z,5.07
2022-11-24T17:57:06.910Z,4.93
2022-11-24T17:59:34.610Z,4.55
2022-11-24T18:02:02.314Z,5.78
2022-11-24T18:04:31.333Z,8.98
2022-11-24T18:06:59.222Z,13.65
2022-11-24T18:09:26.840Z,12.77
2022-11-24T18:11:54.529Z,10.05
2022-11-24T18:14:22.183Z,7.68
2022-11-24T18:16:50.145Z,8.93
2022-11-24T18:19:17.920Z,5.82
2022-11-24T18:21:46.913Z,5.32
2022-11-24T18:24:17.522Z,3.85
2022-11-24T18:26:50.150Z,4.03
2022-11-24T18:29:17.963Z,2.95
2022-11-24T18:31:45.776Z,4.22
2022-11-24T18:34:13.598Z,4.38
2022-11-24T18:36:41.274Z,6.07
2022-11-24T18:39:10.262Z,6.15
2022-11-24T18:41:37.989Z,5.18
2022-11-24T18:44:08.400Z,4.57
2022-11-24T18:46:36.820Z,4.28
2022-11-24T18:49:04.682Z,4.65
2022-11-24T18:51:32.508Z,12.38
2022-11-24T18:54:02.120Z,9.98
2022-11-24T18:56:31.383Z,9.25
2022-11-24T18:58:59.107Z,9.05
2022-11-24T19:01:28.836Z,7.82
2022-11-24T19:03:58.547Z,7.68
2022-11-24T19:06:31.976Z,7.75
2022-11-24T19:09:01.912Z,7.43
2022-11-24T19:11:33.951Z,7.80
2022-11-24T19:14:02.504Z,7.35
2022-11-24T19:16:30.345Z,6.68
2022-11-24T19:18:59.924Z,7.95
2022-11-24T19:21:28.450Z,7.22
2022-11-24T19:24:01.258Z,7.05
2022-11-24T19:26:35.069Z,7.40
2022-11-24T19:29:03.293Z,7.55
2022-11-24T19:31:31.062Z,7.85
2022-11-24T19:33:59.627Z,8.70
2022-11-24T19:36:27.358Z,9.02
2022-11-24T19:38:56.714Z,9.20
2022-11-24T19:41:26.894Z,9.27
2022-11-24T19:43:56.664Z,9.70
2022-11-24T19:46:27.228Z,9.35
2022-11-24T19:48:57.255Z,9.65
2022-11-24T19:51:27.218Z,12.48
2022-11-24T19:53:55.436Z,14.80
2022-11-24T19:56:24.641Z,14.07
2022-11-24T19:58:54.204Z,12.27
2022-11-24T20:01:25.590Z,9.95
2022-11-24T20:03:56.848Z,8.63
2022-11-24T20:06:24.559Z,8.45
2022-11-24T20:08:52.237Z,8.82
2022-11-24T20:11:21.889Z,8.45
2022-11-24T20:13:51.673Z,8.85
2022-11-24T20:16:25.939Z,8.38
2022-11-24T20:18:56.797Z,7.50
2022-11-24T20:21:28.500Z,7.53
2022-11-24T20:23:58.865Z,7.25
2022-11-24T20:26:28.391Z,8.77
2022-11-24T20:28:57.631Z,7.30
2022-11-24T20:31:27.521Z,6.70
2022-11-24T20:33:56.960Z,8.50
2022-11-24T20:36:26.707Z,6.90
2022-11-24T20:38:55.105Z,6.85
2022-11-24T20:41:24.899Z,7.63
2022-11-24T20:43:53.798Z,8.05
2022-11-24T20:46:23.540Z,8.38
2022-11-24T20:48:51.427Z,7.60
2022-11-24T20:51:22.498Z,6.93
2022-11-24T20:53:50.800Z,7.72
2022-11-24T20:56:20.787Z,5.78
2022-11-24T20:58:49.097Z,6.45
2022-11-24T21:01:19.560Z,5.70
2022-11-24T21:03:48.908Z,6.68
2022-11-24T21:06:16.540Z,5.95
2022-11-24T21:08:45.550Z,5.90
2022-11-24T21:11:15.498Z,6.32
2022-11-24T21:13:45.548Z,5.20
2022-11-24T21:16:14.814Z,6.03
2022-11-24T21:18:43.040Z,5.88
2022-11-24T21:21:10.680Z,6.78
2022-11-24T21:23:38.345Z,5.32
2022-11-24T21:26:14.841Z,5.22
2022-11-24T21:28:46.833Z,4.75
2022-11-24T21:31:17.202Z,4.93
2022-11-24T21:33:46.424Z,4.78
2022-11-24T21:36:15.794Z,4.97
2022-11-24T21:38:43.788Z,4.72
2022-11-24T21:41:13.955Z,4.70
2022-11-24T21:43:41.722Z,5.30
2022-11-24T21:46:11.533Z,7.05
2022-11-24T21:48:40.081Z,9.02
2022-11-24T21:51:09.839Z,8.40
2022-11-24T21:53:39.464Z,9.40
2022-11-24T21:56:12.667Z,8.88
2022-11-24T21:58:45.584Z,10.98
2022-11-24T22:03:41.302Z,9.48
2022-11-24T22:06:09.757Z,10.65
2022-11-24T22:08:37.510Z,10.85
2022-11-24T22:11:07.646Z,11.90
2022-11-24T22:13:35.494Z,13.27
2022-11-24T22:16:06.593Z,19.73
2022-11-24T22:18:35.750Z,19.20
2022-11-24T22:21:03.801Z,10.63
2022-11-24T22:23:31.870Z,11.82
2022-11-24T22:26:03.817Z,11.85
2022-11-24T22:28:32.932Z,9.40
2022-11-24T22:31:06.577Z,9.30
2022-11-24T22:33:34.565Z,8.70
2022-11-24T22:36:02.818Z,10.30
2022-11-24T22:38:31.528Z,9.30
2022-11-24T22:41:03.408Z,10.18
2022-11-24T22:43:33.409Z,7.43
2022-11-24T22:46:04.925Z,13.43
2022-11-24T22:48:34.496Z,17.38
2022-11-24T22:51:06.458Z,16.77
2022-11-24T22:53:34.302Z,15.45
2022-11-24T22:56:05.052Z,14.68
2022-11-24T22:58:33.333Z,15.27
2022-11-24T23:01:05.283Z,13.68
2022-11-24T23:03:34.998Z,12.80
2022-11-24T23:06:04.030Z,13.73
2022-11-24T23:08:33.749Z,12.93
2022-11-24T23:11:02.098Z,13.27
2022-11-24T23:13:29.721Z,11.38
2022-11-24T23:16:01.530Z,10.30
2022-11-24T23:18:29.181Z,10.98
2022-11-24T23:20:58.551Z,10.85
2022-11-24T23:23:26.220Z,10.30
2022-11-24T23:25:54.119Z,11.52
2022-11-24T23:28:21.746Z,11.48
2022-11-24T23:30:49.409Z,11.43
2022-11-24T23:33:17.026Z,10.57
2022-11-24T23:35:44.634Z,10.10
2022-11-24T23:38:13.595Z,10.02
2022-11-24T23:40:41.190Z,9.45
2022-11-24T23:43:08.809Z,10.23
2022-11-24T23:45:36.469Z,9.48
2022-11-24T23:48:04.211Z,8.88
2022-11-24T23:50:31.789Z,8.52
2022-11-24T23:52:59.434Z,9.02
2022-11-24T23:55:28.362Z,12.57
2022-11-24T23:57:56.088Z,10.88
